sensor_id;sensor_type;location;lat;lon;timestamp;P1;durP1;ratioP1;P2;durP2;ratioP2
50671;SDS011;46021;55.882;37.654;2023-03-23T00:02:25;4.60;;;3.03;;
50671;SDS011;46021;55.882;37.654;2023-03-23T00:04:53;4.53;;;2.70;;
50671;SDS011;46021;55.882;37.654;2023-03-23T00:07:20;5.20;;;2.95;;
50671;SDS011;46021;55.882;37.654;2023-03-23T00:09:53;5.30;;;3.38;;
50671;SDS011;46021;55.882;37.654;2023-03-23T00:14:54;5.18;;;3.00;;
50671;SDS011;46021;55.882;37.654;2023-03-23T00:17:21;2.50;;;1.53;;
50671;SDS011;46021;55.882;37.654;2023-03-23T00:19:48;5.10;;;3.08;;
50671;SDS011;46021;55.882;37.654;2023-03-23T00:22:16;7.93;;;2.28;;
50671;SDS011;46021;55.882;37.654;2023-03-23T00:24:46;4.35;;;2.92;;
50671;SDS011;46021;55.882;37.654;2023-03-23T00:27:15;4.78;;;2.63;;
50671;SDS011;46021;55.882;37.654;2023-03-23T00:29:44;3.85;;;2.72;;
50671;SDS011;46021;55.882;37.654;2023-03-23T00:32:12;6.47;;;3.28;;
50671;SDS011;46021;55.882;37.654;2023-03-23T00:34:43;5.22;;;3.00;;
50671;SDS011;46021;55.882;37.654;2023-03-23T00:37:12;10.63;;;3.25;;
50671;SDS011;46021;55.882;37.654;2023-03-23T00:39:42;6.35;;;2.72;;
50671;SDS011;46021;55.882;37.654;2023-03-23T00:42:11;4.05;;;2.60;;
50671;SDS011;46021;55.882;37.654;2023-03-23T00:44:39;7.45;;;2.85;;
50671;SDS011;46021;55.882;37.654;2023-03-23T00:47:08;4.40;;;2.85;;
50671;SDS011;46021;55.882;37.654;2023-03-23T00:49:37;4.40;;;2.90;;
50671;SDS011;46021;55.882;37.654;2023-03-23T00:52:06;6.38;;;3.00;;
50671;SDS011;46021;55.882;37.654;2023-03-23T00:54:33;4.47;;;1.95;;
50671;SDS011;46021;55.882;37.654;2023-03-23T00:57:03;6.30;;;2.97;;
50671;SDS011;46021;55.882;37.654;2023-03-23T00:59:31;6.68;;;2.85;;
50671;SDS011;46021;55.882;37.654;2023-03-23T01:01:59;4.43;;;2.78;;
50671;SDS011;46021;55.882;37.654;2023-03-23T01:04:27;4.68;;;2.65;;
50671;SDS011;46021;55.882;37.654;2023-03-23T01:06:57;3.90;;;2.70;;
50671;SDS011;46021;55.882;37.654;2023-03-23T01:09:25;8.00;;;2.75;;
50671;SDS011;46021;55.882;37.654;2023-03-23T01:11:53;9.02;;;1.75;;
50671;SDS011;46021;55.882;37.654;2023-03-23T01:14:21;3.85;;;2.50;;
50671;SDS011;46021;55.882;37.654;2023-03-23T01:16:49;3.78;;;2.13;;
50671;SDS011;46021;55.882;37.654;2023-03-23T01:19:16;4.78;;;2.67;;
50671;SDS011;46021;55.882;37.654;2023-03-23T01:21:44;3.30;;;2.30;;
50671;SDS011;46021;55.882;37.654;2023-03-23T01:24:12;4.00;;;2.42;;
50671;SDS011;46021;55.882;37.654;2023-03-23T01:26:39;4.90;;;2.80;;
50671;SDS011;46021;55.882;37.654;2023-03-23T01:29:06;3.85;;;2.78;;
50671;SDS011;46021;55.882;37.654;2023-03-23T01:31:33;3.85;;;2.50;;
50671;SDS011;46021;55.882;37.654;2023-03-23T01:34:02;4.10;;;2.38;;
50671;SDS011;46021;55.882;37.654;2023-03-23T01:36:30;4.72;;;1.90;;
50671;SDS011;46021;55.882;37.654;2023-03-23T01:39:02;5.20;;;2.78;;
50671;SDS011;46021;55.882;37.654;2023-03-23T01:41:32;3.88;;;2.60;;
50671;SDS011;46021;55.882;37.654;2023-03-23T01:44:06;4.40;;;2.92;;
50671;SDS011;46021;55.882;37.654;2023-03-23T01:46:43;4.70;;;2.72;;
50671;SDS011;46021;55.882;37.654;2023-03-23T01:49:12;3.22;;;2.45;;
50671;SDS011;46021;55.882;37.654;2023-03-23T01:51:45;4.88;;;2.67;;
50671;SDS011;46021;55.882;37.654;2023-03-23T01:54:17;4.20;;;2.85;;
50671;SDS011;46021;55.882;37.654;2023-03-23T01:56:48;4.63;;;2.92;;
50671;SDS011;46021;55.882;37.654;2023-03-23T01:59:19;4.85;;;2.70;;
50671;SDS011;46021;55.882;37.654;2023-03-23T02:01:54;4.40;;;2.67;;
50671;SDS011;46021;55.882;37.654;2023-03-23T02:04:24;7.10;;;2.97;;
50671;SDS011;46021;55.882;37.654;2023-03-23T02:06:52;4.28;;;2.85;;
50671;SDS011;46021;55.882;37.654;2023-03-23T02:09:24;4.82;;;3.00;;
50671;SDS011;46021;55.882;37.654;2023-03-23T02:11:51;6.13;;;3.03;;
50671;SDS011;46021;55.882;37.654;2023-03-23T02:14:20;5.03;;;3.40;;
50671;SDS011;46021;55.882;37.654;2023-03-23T02:16:51;4.85;;;2.80;;
50671;SDS011;46021;55.882;37.654;2023-03-23T02:22:33;5.47;;;3.15;;
50671;SDS011;46021;55.882;37.654;2023-03-23T02:25:23;5.32;;;2.05;;
50671;SDS011;46021;55.882;37.654;2023-03-23T02:28:12;5.63;;;3.15;;
50671;SDS011;46021;55.882;37.654;2023-03-23T02:30:58;5.57;;;3.40;;
50671;SDS011;46021;55.882;37.654;2023-03-23T02:33:39;5.13;;;2.92;;
50671;SDS011;46021;55.882;37.654;2023-03-23T02:36:14;5.78;;;3.60;;
50671;SDS011;46021;55.882;37.654;2023-03-23T02:38:49;4.45;;;3.05;;
50671;SDS011;46021;55.882;37.654;2023-03-23T02:41:22;4.85;;;3.25;;
50671;SDS011;46021;55.882;37.654;2023-03-23T02:43:57;14.15;;;7.47;;
50671;SDS011;46021;55.882;37.654;2023-03-23T02:48:54;5.47;;;3.13;;
50671;SDS011;46021;55.882;37.654;2023-03-23T02:51:26;5.40;;;3.15;;
50671;SDS011;46021;55.882;37.654;2023-03-23T02:53:55;4.63;;;3.00;;
50671;SDS011;46021;55.882;37.654;2023-03-23T02:56:23;5.03;;;3.42;;
50671;SDS011;46021;55.882;37.654;2023-03-23T02:58:54;4.22;;;3.10;;
50671;SDS011;46021;55.882;37.654;2023-03-23T03:04:20;5.32;;;3.08;;
50671;SDS011;46021;55.882;37.654;2023-03-23T03:10:04;5.97;;;3.30;;
50671;SDS011;46021;55.882;37.654;2023-03-23T03:12:41;6.45;;;3.30;;
50671;SDS011;46021;55.882;37.654;2023-03-23T03:15:17;7.10;;;3.40;;
50671;SDS011;46021;55.882;37.654;2023-03-23T03:17:52;6.50;;;3.80;;
50671;SDS011;46021;55.882;37.654;2023-03-23T03:20:27;4.95;;;3.17;;
50671;SDS011;46021;55.882;37.654;2023-03-23T03:22:56;6.22;;;3.30;;
50671;SDS011;46021;55.882;37.654;2023-03-23T03:25:26;6.72;;;3.70;;
50671;SDS011;46021;55.882;37.654;2023-03-23T03:27:57;4.10;;;2.85;;
50671;SDS011;46021;55.882;37.654;2023-03-23T03:30:38;5.40;;;3.30;;
50671;SDS011;46021;55.882;37.654;2023-03-23T03:33:09;6.10;;;3.65;;
50671;SDS011;46021;55.882;37.654;2023-03-23T03:35:39;5.97;;;3.88;;
50671;SDS011;46021;55.882;37.654;2023-03-23T03:38:10;5.10;;;3.38;;
50671;SDS011;46021;55.882;37.654;2023-03-23T03:40:39;10.40;;;3.72;;
50671;SDS011;46021;55.882;37.654;2023-03-23T03:43:06;4.13;;;1.83;;
50671;SDS011;46021;55.882;37.654;2023-03-23T03:45:33;4.65;;;2.42;;
50671;SDS011;46021;55.882;37.654;2023-03-23T03:48:00;5.30;;;3.13;;
50671;SDS011;46021;55.882;37.654;2023-03-23T03:50:29;5.10;;;3.13;;
50671;SDS011;46021;55.882;37.654;2023-03-23T03:52:58;5.90;;;3.78;;
50671;SDS011;46021;55.882;37.654;2023-03-23T03:55:25;6.57;;;3.70;;
50671;SDS011;46021;55.882;37.654;2023-03-23T03:57:53;6.05;;;3.60;;
50671;SDS011;46021;55.882;37.654;2023-03-23T04:00:48;6.22;;;3.67;;
50671;SDS011;46021;55.882;37.654;2023-03-23T04:03:21;7.90;;;3.47;;
50671;SDS011;46021;55.882;37.654;2023-03-23T04:06:08;5.10;;;3.30;;
50671;SDS011;46021;55.882;37.654;2023-03-23T04:08:39;6.15;;;3.75;;
50671;SDS011;46021;55.882;37.654;2023-03-23T04:11:07;5.75;;;3.88;;
50671;SDS011;46021;55.882;37.654;2023-03-23T04:16:06;6.53;;;3.90;;
50671;SDS011;46021;55.882;37.654;2023-03-23T04:18:34;10.05;;;5.35;;
50671;SDS011;46021;55.882;37.654;2023-03-23T04:21:03;6.63;;;4.53;;
50671;SDS011;46021;55.882;37.654;2023-03-23T04:23:32;7.63;;;4.43;;
50671;SDS011;46021;55.882;37.654;2023-03-23T04:26:03;8.48;;;4.07;;
50671;SDS011;46021;55.882;37.654;2023-03-23T04:28:38;6.05;;;3.65;;
50671;SDS011;46021;55.882;37.654;2023-03-23T04:31:41;6.38;;;3.78;;
50671;SDS011;46021;55.882;37.654;2023-03-23T04:34:29;6.07;;;3.95;;
50671;SDS011;46021;55.882;37.654;2023-03-23T04:37:00;5.78;;;3.90;;
50671;SDS011;46021;55.882;37.654;2023-03-23T04:39:29;8.68;;;4.43;;
50671;SDS011;46021;55.882;37.654;2023-03-23T04:42:00;5.43;;;3.47;;
50671;SDS011;46021;55.882;37.654;2023-03-23T04:44:47;6.38;;;3.58;;
50671;SDS011;46021;55.882;37.654;2023-03-23T04:47:25;5.82;;;3.58;;
50671;SDS011;46021;55.882;37.654;2023-03-23T04:49:56;6.35;;;3.70;;
50671;SDS011;46021;55.882;37.654;2023-03-23T04:52:29;9.07;;;3.90;;
50671;SDS011;46021;55.882;37.654;2023-03-23T04:54:59;6.03;;;3.60;;
50671;SDS011;46021;55.882;37.654;2023-03-23T04:57:29;6.95;;;3.85;;
50671;SDS011;46021;55.882;37.654;2023-03-23T05:00:17;9.60;;;3.80;;
50671;SDS011;46021;55.882;37.654;2023-03-23T05:02:50;5.78;;;3.83;;
50671;SDS011;46021;55.882;37.654;2023-03-23T05:05:21;6.43;;;3.85;;
50671;SDS011;46021;55.882;37.654;2023-03-23T05:07:51;8.50;;;3.40;;
50671;SDS011;46021;55.882;37.654;2023-03-23T05:10:21;7.30;;;3.72;;
50671;SDS011;46021;55.882;37.654;2023-03-23T05:12:52;7.28;;;3.70;;
50671;SDS011;46021;55.882;37.654;2023-03-23T05:15:20;5.80;;;3.88;;
50671;SDS011;46021;55.882;37.654;2023-03-23T05:17:47;7.03;;;3.58;;
50671;SDS011;46021;55.882;37.654;2023-03-23T05:20:18;6.53;;;3.83;;
50671;SDS011;46021;55.882;37.654;2023-03-23T05:22:49;5.90;;;3.42;;
50671;SDS011;46021;55.882;37.654;2023-03-23T05:25:25;10.98;;;4.97;;
50671;SDS011;46021;55.882;37.654;2023-03-23T05:28:00;7.80;;;4.18;;
50671;SDS011;46021;55.882;37.654;2023-03-23T05:30:42;10.75;;;4.50;;
50671;SDS011;46021;55.882;37.654;2023-03-23T05:33:12;7.93;;;4.10;;
50671;SDS011;46021;55.882;37.654;2023-03-23T05:35:50;7.55;;;3.97;;
50671;SDS011;46021;55.882;37.654;2023-03-23T05:38:23;10.20;;;4.47;;
50671;SDS011;46021;55.882;37.654;2023-03-23T05:40:51;10.05;;;4.80;;
50671;SDS011;46021;55.882;37.654;2023-03-23T05:43:28;6.65;;;4.47;;
50671;SDS011;46021;55.882;37.654;2023-03-23T05:46:06;7.78;;;5.00;;
50671;SDS011;46021;55.882;37.654;2023-03-23T05:48:35;10.88;;;6.43;;
50671;SDS011;46021;55.882;37.654;2023-03-23T05:51:04;10.18;;;5.25;;
50671;SDS011;46021;55.882;37.654;2023-03-23T05:53:35;8.15;;;4.88;;
50671;SDS011;46021;55.882;37.654;2023-03-23T05:56:02;7.93;;;5.57;;
50671;SDS011;46021;55.882;37.654;2023-03-23T05:58:48;13.82;;;6.53;;
50671;SDS011;46021;55.882;37.654;2023-03-23T06:01:15;8.63;;;5.72;;
50671;SDS011;46021;55.882;37.654;2023-03-23T06:03:42;9.68;;;6.38;;
50671;SDS011;46021;55.882;37.654;2023-03-23T06:06:16;8.77;;;6.10;;
50671;SDS011;46021;55.882;37.654;2023-03-23T06:09:06;12.30;;;6.38;;
50671;SDS011;46021;55.882;37.654;2023-03-23T06:11:53;10.88;;;6.68;;
50671;SDS011;46021;55.882;37.654;2023-03-23T06:14:42;14.85;;;6.38;;
50671;SDS011;46021;55.882;37.654;2023-03-23T06:17:11;12.68;;;6.85;;
50671;SDS011;46021;55.882;37.654;2023-03-23T06:19:38;15.60;;;7.35;;
50671;SDS011;46021;55.882;37.654;2023-03-23T06:22:12;12.70;;;7.13;;
50671;SDS011;46021;55.882;37.654;2023-03-23T06:24:46;12.75;;;7.18;;
50671;SDS011;46021;55.882;37.654;2023-03-23T06:27:18;13.57;;;6.57;;
50671;SDS011;46021;55.882;37.654;2023-03-23T06:29:47;14.25;;;6.88;;
50671;SDS011;46021;55.882;37.654;2023-03-23T06:32:14;11.73;;;6.35;;
50671;SDS011;46021;55.882;37.654;2023-03-23T06:34:43;11.82;;;6.60;;
50671;SDS011;46021;55.882;37.654;2023-03-23T06:37:34;11.10;;;6.40;;
50671;SDS011;46021;55.882;37.654;2023-03-23T06:40:11;15.88;;;6.90;;
50671;SDS011;46021;55.882;37.654;2023-03-23T06:42:40;17.73;;;8.85;;
50671;SDS011;46021;55.882;37.654;2023-03-23T06:45:32;12.65;;;8.18;;
50671;SDS011;46021;55.882;37.654;2023-03-23T06:48:17;13.50;;;7.13;;
50671;SDS011;46021;55.882;37.654;2023-03-23T06:50:45;11.53;;;6.63;;
50671;SDS011;46021;55.882;37.654;2023-03-23T06:53:15;10.85;;;6.93;;
50671;SDS011;46021;55.882;37.654;2023-03-23T06:55:44;13.45;;;7.95;;
50671;SDS011;46021;55.882;37.654;2023-03-23T06:58:12;12.25;;;7.43;;
50671;SDS011;46021;55.882;37.654;2023-03-23T07:00:41;10.35;;;6.72;;
50671;SDS011;46021;55.882;37.654;2023-03-23T07:03:12;12.55;;;7.75;;
50671;SDS011;46021;55.882;37.654;2023-03-23T07:05:39;11.67;;;7.30;;
50671;SDS011;46021;55.882;37.654;2023-03-23T07:08:09;13.18;;;6.80;;
50671;SDS011;46021;55.882;37.654;2023-03-23T07:10:45;13.57;;;7.65;;
50671;SDS011;46021;55.882;37.654;2023-03-23T07:13:13;13.23;;;7.03;;
50671;SDS011;46021;55.882;37.654;2023-03-23T07:15:50;19.35;;;7.72;;
50671;SDS011;46021;55.882;37.654;2023-03-23T07:18:18;14.38;;;7.85;;
50671;SDS011;46021;55.882;37.654;2023-03-23T07:20:47;14.07;;;8.57;;
50671;SDS011;46021;55.882;37.654;2023-03-23T07:23:15;12.25;;;7.65;;
50671;SDS011;46021;55.882;37.654;2023-03-23T07:25:49;11.85;;;7.85;;
50671;SDS011;46021;55.882;37.654;2023-03-23T07:28:21;11.68;;;7.70;;
50671;SDS011;46021;55.882;37.654;2023-03-23T07:30:51;17.67;;;8.15;;
50671;SDS011;46021;55.882;37.654;2023-03-23T07:33:20;12.30;;;7.82;;
50671;SDS011;46021;55.882;37.654;2023-03-23T07:35:48;17.10;;;7.85;;
50671;SDS011;46021;55.882;37.654;2023-03-23T07:38:17;11.63;;;7.57;;
50671;SDS011;46021;55.882;37.654;2023-03-23T07:40:51;16.55;;;8.60;;
50671;SDS011;46021;55.882;37.654;2023-03-23T07:43:19;14.18;;;7.55;;
50671;SDS011;46021;55.882;37.654;2023-03-23T07:46:08;13.38;;;7.97;;
50671;SDS011;46021;55.882;37.654;2023-03-23T07:48:58;11.05;;;7.63;;
50671;SDS011;46021;55.882;37.654;2023-03-23T07:51:34;11.57;;;7.40;;
50671;SDS011;46021;55.882;37.654;2023-03-23T07:54:04;11.88;;;7.15;;
50671;SDS011;46021;55.882;37.654;2023-03-23T07:56:52;12.88;;;6.72;;
50671;SDS011;46021;55.882;37.654;2023-03-23T07:59:24;11.77;;;7.20;;
50671;SDS011;46021;55.882;37.654;2023-03-23T08:04:26;14.70;;;7.38;;
50671;SDS011;46021;55.882;37.654;2023-03-23T08:07:09;10.70;;;6.57;;
50671;SDS011;46021;55.882;37.654;2023-03-23T08:10:00;10.50;;;6.63;;
50671;SDS011;46021;55.882;37.654;2023-03-23T08:12:46;12.55;;;7.30;;
50671;SDS011;46021;55.882;37.654;2023-03-23T08:15:31;15.23;;;6.95;;
50671;SDS011;46021;55.882;37.654;2023-03-23T08:18:17;11.73;;;7.00;;
50671;SDS011;46021;55.882;37.654;2023-03-23T08:20:53;12.63;;;6.30;;
50671;SDS011;46021;55.882;37.654;2023-03-23T08:23:37;12.32;;;6.50;;
50671;SDS011;46021;55.882;37.654;2023-03-23T08:26:39;26.08;;;13.48;;
50671;SDS011;46021;55.882;37.654;2023-03-23T08:29:45;12.60;;;7.10;;
50671;SDS011;46021;55.882;37.654;2023-03-23T08:32:35;16.60;;;7.00;;
50671;SDS011;46021;55.882;37.654;2023-03-23T08:35:15;11.53;;;6.47;;
50671;SDS011;46021;55.882;37.654;2023-03-23T08:38:03;9.05;;;6.13;;
50671;SDS011;46021;55.882;37.654;2023-03-23T08:41:03;13.77;;;7.25;;
50671;SDS011;46021;55.882;37.654;2023-03-23T08:43:55;18.13;;;6.75;;
50671;SDS011;46021;55.882;37.654;2023-03-23T08:46:52;9.68;;;6.22;;
50671;SDS011;46021;55.882;37.654;2023-03-23T08:49:45;9.90;;;6.53;;
50671;SDS011;46021;55.882;37.654;2023-03-23T08:52:40;10.88;;;6.15;;
50671;SDS011;46021;55.882;37.654;2023-03-23T08:55:38;12.13;;;6.45;;
50671;SDS011;46021;55.882;37.654;2023-03-23T08:58:24;13.65;;;6.00;;
50671;SDS011;46021;55.882;37.654;2023-03-23T09:01:12;17.55;;;8.35;;
50671;SDS011;46021;55.882;37.654;2023-03-23T09:03:39;10.93;;;5.78;;
50671;SDS011;46021;55.882;37.654;2023-03-23T09:06:25;13.98;;;5.85;;
50671;SDS011;46021;55.882;37.654;2023-03-23T09:08:54;10.68;;;6.00;;
50671;SDS011;46021;55.882;37.654;2023-03-23T09:11:21;8.07;;;4.85;;
50671;SDS011;46021;55.882;37.654;2023-03-23T09:13:49;9.00;;;4.90;;
50671;SDS011;46021;55.882;37.654;2023-03-23T09:16:16;10.38;;;5.25;;
50671;SDS011;46021;55.882;37.654;2023-03-23T09:21:11;11.82;;;5.60;;
50671;SDS011;46021;55.882;37.654;2023-03-23T09:23:38;7.53;;;5.30;;
50671;SDS011;46021;55.882;37.654;2023-03-23T09:26:10;38.45;;;21.65;;
50671;SDS011;46021;55.882;37.654;2023-03-23T09:28:37;11.20;;;6.55;;
50671;SDS011;46021;55.882;37.654;2023-03-23T09:31:05;14.23;;;5.30;;
50671;SDS011;46021;55.882;37.654;2023-03-23T09:33:33;8.55;;;4.90;;
50671;SDS011;46021;55.882;37.654;2023-03-23T09:36:00;13.27;;;6.72;;
50671;SDS011;46021;55.882;37.654;2023-03-23T09:38:27;14.02;;;5.63;;
50671;SDS011;46021;55.882;37.654;2023-03-23T09:40:59;9.40;;;6.07;;
50671;SDS011;46021;55.882;37.654;2023-03-23T09:43:38;10.52;;;4.72;;
50671;SDS011;46021;55.882;37.654;2023-03-23T09:46:18;9.30;;;4.40;;
50671;SDS011;46021;55.882;37.654;2023-03-23T09:48:53;13.68;;;4.55;;
50671;SDS011;46021;55.882;37.654;2023-03-23T09:51:25;10.60;;;5.43;;
50671;SDS011;46021;55.882;37.654;2023-03-23T09:54:05;14.15;;;4.53;;
50671;SDS011;46021;55.882;37.654;2023-03-23T09:56:39;6.68;;;4.78;;
50671;SDS011;46021;55.882;37.654;2023-03-23T09:59:11;10.70;;;4.70;;
50671;SDS011;46021;55.882;37.654;2023-03-23T10:01:44;8.45;;;4.22;;
50671;SDS011;46021;55.882;37.654;2023-03-23T10:04:15;7.10;;;4.22;;
50671;SDS011;46021;55.882;37.654;2023-03-23T10:07:08;7.03;;;4.38;;
50671;SDS011;46021;55.882;37.654;2023-03-23T10:09:37;7.70;;;4.35;;
50671;SDS011;46021;55.882;37.654;2023-03-23T10:12:09;7.30;;;4.03;;
50671;SDS011;46021;55.882;37.654;2023-03-23T10:15:04;5.60;;;3.92;;
50671;SDS011;46021;55.882;37.654;2023-03-23T10:17:39;6.80;;;4.00;;
50671;SDS011;46021;55.882;37.654;2023-03-23T10:20:22;7.78;;;4.20;;
50671;SDS011;46021;55.882;37.654;2023-03-23T10:22:57;6.43;;;4.13;;
50671;SDS011;46021;55.882;37.654;2023-03-23T10:25:31;6.30;;;4.47;;
50671;SDS011;46021;55.882;37.654;2023-03-23T10:28:04;6.22;;;3.85;;
50671;SDS011;46021;55.882;37.654;2023-03-23T10:30:36;6.95;;;4.00;;
50671;SDS011;46021;55.882;37.654;2023-03-23T10:33:08;14.45;;;4.07;;
50671;SDS011;46021;55.882;37.654;2023-03-23T10:35:42;5.90;;;3.92;;
50671;SDS011;46021;55.882;37.654;2023-03-23T10:38:13;33.50;;;4.25;;
50671;SDS011;46021;55.882;37.654;2023-03-23T10:40:45;9.10;;;3.75;;
50671;SDS011;46021;55.882;37.654;2023-03-23T10:43:17;7.07;;;3.45;;
50671;SDS011;46021;55.882;37.654;2023-03-23T10:45:48;13.13;;;4.25;;
50671;SDS011;46021;55.882;37.654;2023-03-23T10:48:22;8.13;;;3.80;;
50671;SDS011;46021;55.882;37.654;2023-03-23T10:50:55;9.90;;;4.00;;
50671;SDS011;46021;55.882;37.654;2023-03-23T10:53:26;10.02;;;3.90;;
50671;SDS011;46021;55.882;37.654;2023-03-23T10:55:59;11.55;;;4.55;;
50671;SDS011;46021;55.882;37.654;2023-03-23T10:58:27;6.40;;;4.10;;
50671;SDS011;46021;55.882;37.654;2023-03-23T11:00:58;8.40;;;4.28;;
50671;SDS011;46021;55.882;37.654;2023-03-23T11:03:32;5.45;;;3.85;;
50671;SDS011;46021;55.882;37.654;2023-03-23T11:06:06;10.82;;;3.95;;
50671;SDS011;46021;55.882;37.654;2023-03-23T11:08:37;4.95;;;3.47;;
50671;SDS011;46021;55.882;37.654;2023-03-23T11:11:15;6.03;;;3.35;;
50671;SDS011;46021;55.882;37.654;2023-03-23T11:13:44;9.60;;;3.90;;
50671;SDS011;46021;55.882;37.654;2023-03-23T11:16:23;7.65;;;3.97;;
50671;SDS011;46021;55.882;37.654;2023-03-23T11:18:50;5.93;;;3.70;;
50671;SDS011;46021;55.882;37.654;2023-03-23T11:21:19;6.72;;;4.18;;
50671;SDS011;46021;55.882;37.654;2023-03-23T11:23:49;7.80;;;4.13;;
50671;SDS011;46021;55.882;37.654;2023-03-23T11:26:19;8.00;;;3.80;;
50671;SDS011;46021;55.882;37.654;2023-03-23T11:28:52;7.07;;;3.78;;
50671;SDS011;46021;55.882;37.654;2023-03-23T11:31:27;10.27;;;5.00;;
50671;SDS011;46021;55.882;37.654;2023-03-23T11:33:57;7.82;;;4.70;;
50671;SDS011;46021;55.882;37.654;2023-03-23T11:36:29;8.63;;;3.72;;
50671;SDS011;46021;55.882;37.654;2023-03-23T11:39:02;7.93;;;4.53;;
50671;SDS011;46021;55.882;37.654;2023-03-23T11:41:32;12.52;;;3.97;;
50671;SDS011;46021;55.882;37.654;2023-03-23T11:44:09;11.50;;;4.22;;
50671;SDS011;46021;55.882;37.654;2023-03-23T11:46:42;6.63;;;3.78;;
50671;SDS011;46021;55.882;37.654;2023-03-23T11:49:19;6.53;;;3.67;;
50671;SDS011;46021;55.882;37.654;2023-03-23T11:51:54;6.33;;;3.90;;
50671;SDS011;46021;55.882;37.654;2023-03-23T11:54:26;5.45;;;3.20;;
50671;SDS011;46021;55.882;37.654;2023-03-23T11:56:58;7.13;;;3.95;;
50671;SDS011;46021;55.882;37.654;2023-03-23T11:59:27;6.45;;;3.42;;
50671;SDS011;46021;55.882;37.654;2023-03-23T12:02:00;12.07;;;4.00;;
50671;SDS011;46021;55.882;37.654;2023-03-23T12:04:52;9.93;;;3.58;;
50671;SDS011;46021;55.882;37.654;2023-03-23T12:07:50;14.27;;;6.88;;
50671;SDS011;46021;55.882;37.654;2023-03-23T12:10:30;7.65;;;4.30;;
50671;SDS011;46021;55.882;37.654;2023-03-23T12:13:14;7.50;;;4.05;;
50671;SDS011;46021;55.882;37.654;2023-03-23T12:15:52;6.32;;;3.53;;
50671;SDS011;46021;55.882;37.654;2023-03-23T12:18:30;6.30;;;4.00;;
50671;SDS011;46021;55.882;37.654;2023-03-23T12:21:06;12.50;;;3.78;;
50671;SDS011;46021;55.882;37.654;2023-03-23T12:23:43;9.75;;;3.65;;
50671;SDS011;46021;55.882;37.654;2023-03-23T12:26:18;8.20;;;3.47;;
50671;SDS011;46021;55.882;37.654;2023-03-23T12:28:59;12.20;;;4.28;;
50671;SDS011;46021;55.882;37.654;2023-03-23T12:31:46;6.15;;;3.28;;
50671;SDS011;46021;55.882;37.654;2023-03-23T12:34:26;9.48;;;3.65;;
50671;SDS011;46021;55.882;37.654;2023-03-23T12:37:10;9.68;;;3.60;;
50671;SDS011;46021;55.882;37.654;2023-03-23T12:39:54;11.15;;;4.88;;
50671;SDS011;46021;55.882;37.654;2023-03-23T12:42:33;9.30;;;5.10;;
50671;SDS011;46021;55.882;37.654;2023-03-23T12:47:47;7.50;;;4.07;;
50671;SDS011;46021;55.882;37.654;2023-03-23T12:50:23;5.63;;;3.60;;
50671;SDS011;46021;55.882;37.654;2023-03-23T12:52:56;6.72;;;3.35;;
50671;SDS011;46021;55.882;37.654;2023-03-23T12:55:27;7.78;;;3.83;;
50671;SDS011;46021;55.882;37.654;2023-03-23T12:58:00;7.15;;;3.53;;
50671;SDS011;46021;55.882;37.654;2023-03-23T13:00:33;5.80;;;3.70;;
50671;SDS011;46021;55.882;37.654;2023-03-23T13:03:20;7.57;;;3.80;;
50671;SDS011;46021;55.882;37.654;2023-03-23T13:05:57;6.38;;;3.75;;
50671;SDS011;46021;55.882;37.654;2023-03-23T13:08:28;14.27;;;4.28;;
50671;SDS011;46021;55.882;37.654;2023-03-23T13:10:59;15.77;;;10.00;;
50671;SDS011;46021;55.882;37.654;2023-03-23T13:13:40;12.07;;;4.50;;
50671;SDS011;46021;55.882;37.654;2023-03-23T13:16:12;8.15;;;4.10;;
50671;SDS011;46021;55.882;37.654;2023-03-23T13:18:47;6.78;;;3.80;;
50671;SDS011;46021;55.882;37.654;2023-03-23T13:21:25;4.93;;;3.17;;
50671;SDS011;46021;55.882;37.654;2023-03-23T13:23:58;6.32;;;3.53;;
50671;SDS011;46021;55.882;37.654;2023-03-23T13:26:29;6.15;;;3.70;;
50671;SDS011;46021;55.882;37.654;2023-03-23T13:28:57;12.50;;;3.70;;
50671;SDS011;46021;55.882;37.654;2023-03-23T13:31:28;4.85;;;3.47;;
50671;SDS011;46021;55.882;37.654;2023-03-23T13:34:05;6.82;;;3.92;;
50671;SDS011;46021;55.882;37.654;2023-03-23T13:36:40;5.28;;;3.70;;
50671;SDS011;46021;55.882;37.654;2023-03-23T13:39:17;7.63;;;3.83;;
50671;SDS011;46021;55.882;37.654;2023-03-23T13:41:46;8.25;;;3.80;;
50671;SDS011;46021;55.882;37.654;2023-03-23T13:44:16;6.53;;;3.92;;
50671;SDS011;46021;55.882;37.654;2023-03-23T13:47:06;7.40;;;4.15;;
50671;SDS011;46021;55.882;37.654;2023-03-23T13:49:44;7.18;;;3.75;;
50671;SDS011;46021;55.882;37.654;2023-03-23T13:52:21;9.77;;;3.78;;
50671;SDS011;46021;55.882;37.654;2023-03-23T13:54:51;7.40;;;4.05;;
50671;SDS011;46021;55.882;37.654;2023-03-23T13:57:36;6.25;;;3.70;;
50671;SDS011;46021;55.882;37.654;2023-03-23T14:00:33;7.10;;;3.95;;
50671;SDS011;46021;55.882;37.654;2023-03-23T14:03:10;6.50;;;4.05;;
50671;SDS011;46021;55.882;37.654;2023-03-23T14:05:40;10.45;;;3.78;;
50671;SDS011;46021;55.882;37.654;2023-03-23T14:08:12;6.38;;;3.60;;
50671;SDS011;46021;55.882;37.654;2023-03-23T14:10:41;7.15;;;4.10;;
50671;SDS011;46021;55.882;37.654;2023-03-23T14:13:14;8.13;;;4.57;;
50671;SDS011;46021;55.882;37.654;2023-03-23T14:15:53;9.60;;;4.20;;
50671;SDS011;46021;55.882;37.654;2023-03-23T14:18:23;8.93;;;3.78;;
50671;SDS011;46021;55.882;37.654;2023-03-23T14:20:53;5.45;;;3.78;;
50671;SDS011;46021;55.882;37.654;2023-03-23T14:23:23;6.80;;;3.53;;
50671;SDS011;46021;55.882;37.654;2023-03-23T14:25:54;9.63;;;3.92;;
50671;SDS011;46021;55.882;37.654;2023-03-23T14:28:30;7.63;;;3.42;;
50671;SDS011;46021;55.882;37.654;2023-03-23T14:30:59;9.32;;;4.28;;
50671;SDS011;46021;55.882;37.654;2023-03-23T14:33:26;6.78;;;4.03;;
50671;SDS011;46021;55.882;37.654;2023-03-23T14:35:54;8.25;;;3.70;;
50671;SDS011;46021;55.882;37.654;2023-03-23T14:38:26;9.00;;;4.30;;
50671;SDS011;46021;55.882;37.654;2023-03-23T14:41:00;9.20;;;3.42;;
50671;SDS011;46021;55.882;37.654;2023-03-23T14:43:30;8.35;;;4.40;;
50671;SDS011;46021;55.882;37.654;2023-03-23T14:46:00;10.32;;;3.90;;
50671;SDS011;46021;55.882;37.654;2023-03-23T14:48:32;8.48;;;3.20;;
50671;SDS011;46021;55.882;37.654;2023-03-23T14:50:59;7.45;;;3.92;;
50671;SDS011;46021;55.882;37.654;2023-03-23T14:53:33;13.05;;;4.70;;
50671;SDS011;46021;55.882;37.654;2023-03-23T14:56:03;17.30;;;5.90;;
50671;SDS011;46021;55.882;37.654;2023-03-23T14:58:37;8.18;;;4.35;;
50671;SDS011;46021;55.882;37.654;2023-03-23T15:01:05;6.75;;;4.13;;
50671;SDS011;46021;55.882;37.654;2023-03-23T15:03:35;9.88;;;3.80;;
50671;SDS011;46021;55.882;37.654;2023-03-23T15:06:07;6.88;;;3.47;;
50671;SDS011;46021;55.882;37.654;2023-03-23T15:08:40;7.93;;;3.80;;
50671;SDS011;46021;55.882;37.654;2023-03-23T15:11:10;6.15;;;4.00;;
50671;SDS011;46021;55.882;37.654;2023-03-23T15:13:42;9.88;;;3.80;;
50671;SDS011;46021;55.882;37.654;2023-03-23T15:16:12;9.85;;;4.25;;
50671;SDS011;46021;55.882;37.654;2023-03-23T15:18:46;8.68;;;4.30;;
50671;SDS011;46021;55.882;37.654;2023-03-23T15:21:20;8.27;;;4.10;;
50671;SDS011;46021;55.882;37.654;2023-03-23T15:23:52;8.20;;;4.03;;
50671;SDS011;46021;55.882;37.654;2023-03-23T15:26:26;7.78;;;4.43;;
50671;SDS011;46021;55.882;37.654;2023-03-23T15:29:10;8.02;;;4.13;;
50671;SDS011;46021;55.882;37.654;2023-03-23T15:31:41;9.00;;;4.22;;
50671;SDS011;46021;55.882;37.654;2023-03-23T15:34:12;8.35;;;4.45;;
50671;SDS011;46021;55.882;37.654;2023-03-23T15:36:55;16.90;;;4.20;;